createdAt,value
2022-11-22T00:00:49.192Z,99638.00
2022-11-22T00:03:16.667Z,99634.22
2022-11-22T00:05:44.164Z,99648.84
2022-11-22T00:08:11.657Z,99649.22
2022-11-22T00:10:39.433Z,99638.78
2022-11-22T00:13:06.986Z,99634.59
2022-11-22T00:15:34.431Z,99637.28
2022-11-22T00:18:02.305Z,99624.19
2022-11-22T00:20:29.863Z,99630.47
2022-11-22T00:22:58.456Z,99616.97
2022-11-22T00:25:26.808Z,99619.13
2022-11-22T00:27:55.059Z,99619.00
2022-11-22T00:30:22.552Z,99607.81
2022-11-22T00:32:50.006Z,99609.16
2022-11-22T00:35:17.480Z,99602.13
2022-11-22T00:37:45.060Z,99606.63
2022-11-22T00:40:12.691Z,99603.22
2022-11-22T00:42:40.433Z,99606.50
2022-11-22T00:45:08.371Z,99606.91
2022-11-22T00:47:36.023Z,99598.22
2022-11-22T00:50:04.924Z,99597.22
2022-11-22T00:52:32.634Z,99595.69
2022-11-22T00:55:02.541Z,99591.44
2022-11-22T00:57:31.160Z,99588.16
2022-11-22T01:00:00.884Z,99583.09
2022-11-22T01:02:28.403Z,99571.66
2022-11-22T01:04:58.093Z,99573.78
2022-11-22T01:07:25.653Z,99574.13
2022-11-22T01:09:53.165Z,99571.50
2022-11-22T01:12:20.992Z,99564.41
2022-11-22T01:14:48.524Z,99561.25
2022-11-22T01:17:16.159Z,99555.69
2022-11-22T01:19:43.823Z,99559.34
2022-11-22T01:22:11.339Z,99550.25
2022-11-22T01:24:41.370Z,99544.66
2022-11-22T01:27:08.927Z,99540.41
2022-11-22T01:29:43.718Z,99541.03
2022-11-22T01:32:11.151Z,99555.78
2022-11-22T01:34:38.682Z,99548.88
2022-11-22T01:37:06.309Z,99544.22
2022-11-22T01:39:33.852Z,99532.16
2022-11-22T01:42:01.299Z,99528.66
2022-11-22T01:44:32.147Z,99538.31
2022-11-22T01:47:24.041Z,99526.19
2022-11-22T01:49:56.256Z,99521.56
2022-11-22T01:52:27.991Z,99515.03
2022-11-22T01:55:07.319Z,99511.25
2022-11-22T01:57:38.871Z,99500.78
2022-11-22T02:00:10.940Z,99495.91
2022-11-22T02:02:50.868Z,99494.09
2022-11-22T02:05:21.491Z,99477.00
2022-11-22T02:08:13.603Z,99488.38
2022-11-22T02:10:46.930Z,99478.97
2022-11-22T02:13:16.326Z,99479.06
2022-11-22T02:16:04.267Z,99473.50
2022-11-22T02:18:35.443Z,99468.72
2022-11-22T02:21:04.368Z,99447.84
2022-11-22T02:23:38.284Z,99458.38
2022-11-22T02:26:06.060Z,99453.81
2022-11-22T02:28:37.745Z,99450.06
2022-11-22T02:31:05.702Z,99443.63
2022-11-22T02:33:33.502Z,99443.09
2022-11-22T02:36:01.453Z,99446.81
2022-11-22T02:38:35.124Z,99433.44
2022-11-22T02:41:08.828Z,99427.44
2022-11-22T02:43:39.976Z,99432.56
2022-11-22T02:46:10.515Z,99424.03
2022-11-22T02:48:42.333Z,99426.91
2022-11-22T02:51:10.323Z,99416.56
2022-11-22T02:53:38.028Z,99416.06
2022-11-22T02:56:05.709Z,99411.78
2022-11-22T02:58:33.292Z,99412.22
2022-11-22T03:01:00.886Z,99402.13
2022-11-22T03:03:28.476Z,99401.72
2022-11-22T03:05:55.950Z,99394.81
2022-11-22T03:08:23.503Z,99398.22
2022-11-22T03:10:50.958Z,99390.28
2022-11-22T03:13:18.528Z,99382.22
2022-11-22T03:15:49.305Z,99378.91
2022-11-22T03:18:16.767Z,99382.44
2022-11-22T03:20:44.270Z,99379.78
2022-11-22T03:23:11.825Z,99372.31
2022-11-22T03:25:40.189Z,99372.66
2022-11-22T03:28:07.887Z,99364.00
2022-11-22T03:30:40.301Z,99365.75
2022-11-22T03:33:07.903Z,99355.84
2022-11-22T03:35:35.386Z,99357.41
2022-11-22T03:38:03.475Z,99352.72
2022-11-22T03:40:31.052Z,99352.06
2022-11-22T03:43:00.419Z,99361.47
2022-11-22T03:45:31.426Z,99358.75
2022-11-22T03:47:58.922Z,99341.63
2022-11-22T03:50:26.434Z,99347.56
2022-11-22T03:52:54.072Z,99335.84
2022-11-22T03:55:21.516Z,99352.41
2022-11-22T03:57:49.070Z,99340.13
2022-11-22T04:00:16.702Z,99336.81
2022-11-22T04:02:44.565Z,99341.31
2022-11-22T04:05:12.055Z,99339.81
2022-11-22T04:07:39.806Z,99324.22
2022-11-22T04:10:08.090Z,99316.41
2022-11-22T04:12:36.124Z,99315.78
2022-11-22T04:15:06.832Z,99305.78
2022-11-22T04:17:44.644Z,99306.00
2022-11-22T04:20:35.136Z,99294.41
2022-11-22T04:23:05.691Z,99306.25
2022-11-22T04:25:35.553Z,99295.72
2022-11-22T04:28:04.693Z,99290.00
2022-11-22T04:30:50.884Z,99288.81
2022-11-22T04:33:18.980Z,99297.56
2022-11-22T04:35:46.938Z,99284.72
2022-11-22T04:38:16.119Z,99291.59
2022-11-22T04:40:44.560Z,99291.19
2022-11-22T04:43:37.815Z,99284.28
2022-11-22T04:46:05.710Z,99289.75
2022-11-22T04:48:33.516Z,99279.66
2022-11-22T04:51:19.985Z,99268.69
2022-11-22T04:53:47.550Z,99264.53
2022-11-22T04:56:15.316Z,99269.72
2022-11-22T04:58:42.877Z,99259.06
2022-11-22T05:01:11.404Z,99262.47
2022-11-22T05:03:42.885Z,99243.94
2022-11-22T05:06:13.593Z,99223.56
2022-11-22T05:08:41.711Z,99230.81
2022-11-22T05:11:09.146Z,99225.63
2022-11-22T05:13:39.346Z,99223.56
2022-11-22T05:16:10.880Z,99227.41
2022-11-22T05:18:39.408Z,99219.63
2022-11-22T05:21:14.781Z,99213.91
2022-11-22T05:23:54.860Z,99220.59
2022-11-22T05:26:27.242Z,99210.00
2022-11-22T05:28:55.226Z,99208.00
2022-11-22T05:31:24.820Z,99208.75
2022-11-22T05:33:54.436Z,99202.84
2022-11-22T05:36:22.438Z,99212.16
2022-11-22T05:38:50.707Z,99200.66
2022-11-22T05:41:19.195Z,99205.38
2022-11-22T05:43:46.810Z,99194.25
2022-11-22T05:46:23.840Z,99196.56
2022-11-22T05:48:53.704Z,99185.25
2022-11-22T05:51:24.231Z,99182.94
2022-11-22T05:53:53.139Z,99173.16
2022-11-22T05:56:23.411Z,99173.78
2022-11-22T05:58:51.607Z,99170.81
2022-11-22T06:01:21.907Z,99160.72
2022-11-22T06:03:50.544Z,99168.38
2022-11-22T06:06:20.955Z,99168.72
2022-11-22T06:08:49.007Z,99168.91
2022-11-22T06:11:22.318Z,99164.00
2022-11-22T06:13:59.872Z,99160.91
2022-11-22T06:16:27.635Z,99158.34
2022-11-22T06:18:55.486Z,99160.44
2022-11-22T06:21:25.175Z,99162.34
2022-11-22T06:23:56.099Z,99163.03
2022-11-22T06:26:24.849Z,99166.75
2022-11-22T06:28:54.011Z,99152.59
2022-11-22T06:31:26.494Z,99145.78
2022-11-22T06:34:00.699Z,99142.75
2022-11-22T06:36:33.369Z,99135.13
2022-11-22T06:39:02.681Z,99140.59
2022-11-22T06:41:37.717Z,99127.59
2022-11-22T06:44:07.390Z,99126.03
2022-11-22T06:46:35.180Z,99120.59
2022-11-22T06:49:03.225Z,99134.22
2022-11-22T06:51:31.901Z,99131.59
2022-11-22T06:53:59.616Z,99124.38
2022-11-22T06:56:40.009Z,99126.22
2022-11-22T06:59:08.573Z,99124.06
2022-11-22T07:01:37.776Z,99119.00
2022-11-22T07:04:05.904Z,99128.66
2022-11-22T07:06:38.819Z,99111.44
2022-11-22T07:09:09.696Z,99116.13
2022-11-22T07:11:38.346Z,99099.75
2022-11-22T07:14:08.715Z,99106.94
2022-11-22T07:16:38.851Z,99119.38
2022-11-22T07:19:07.223Z,99110.59
2022-11-22T07:21:35.589Z,99101.78
2022-11-22T07:24:05.377Z,99100.53
2022-11-22T07:26:33.066Z,99099.75
2022-11-22T07:29:00.630Z,99091.31
2022-11-22T07:31:28.496Z,99094.72
2022-11-22T07:33:57.732Z,99094.25
2022-11-22T07:36:28.802Z,99100.84
2022-11-22T07:38:56.654Z,99096.03
2022-11-22T07:41:24.348Z,99084.25
2022-11-22T07:43:53.143Z,99093.31
2022-11-22T07:46:24.879Z,99083.28
2022-11-22T07:48:52.389Z,99076.66
2022-11-22T07:51:20.147Z,99069.47
2022-11-22T07:53:48.354Z,99076.09
2022-11-22T07:56:16.643Z,99074.31
2022-11-22T07:58:44.178Z,99070.06
2022-11-22T08:01:14.039Z,99085.22
2022-11-22T08:03:41.780Z,99082.88
2022-11-22T08:06:13.294Z,99085.41
2022-11-22T08:08:41.253Z,99074.91
2022-11-22T08:11:10.327Z,99086.19
2022-11-22T08:13:37.950Z,99082.13
2022-11-22T08:16:09.429Z,99091.38
2022-11-22T08:18:38.618Z,99084.84
2022-11-22T08:21:11.505Z,99078.13
2022-11-22T08:23:39.793Z,99079.19
2022-11-22T08:26:09.347Z,99074.31
2022-11-22T08:28:37.122Z,99076.06
2022-11-22T08:31:08.644Z,99079.16
2022-11-22T08:33:36.787Z,99079.56
2022-11-22T08:36:04.722Z,99077.25
2022-11-22T08:38:32.699Z,99067.13
2022-11-22T08:41:00.356Z,99061.38
2022-11-22T08:43:27.805Z,99063.19
2022-11-22T08:45:57.519Z,99059.38
2022-11-22T08:48:26.664Z,99054.88
2022-11-22T08:50:57.226Z,99049.81
2022-11-22T08:53:25.642Z,99042.16
2022-11-22T08:55:54.096Z,99043.63
2022-11-22T08:58:22.579Z,99044.00
2022-11-22T09:00:50.167Z,99042.84
2022-11-22T09:03:17.623Z,99033.75
2022-11-22T09:08:36.383Z,99040.63
2022-11-22T09:11:08.354Z,99031.56
2022-11-22T09:13:36.194Z,99040.03
2022-11-22T09:16:05.566Z,99031.75
2022-11-22T09:18:33.614Z,99039.63
2022-11-22T09:21:05.813Z,99034.56
2022-11-22T09:23:34.147Z,99027.22
2022-11-22T09:26:10.051Z,99029.88
2022-11-22T09:28:41.195Z,99039.28
2022-11-22T09:31:16.424Z,99027.88
2022-11-22T09:33:49.422Z,99032.72
2022-11-22T09:36:22.644Z,99027.50
2022-11-22T09:38:51.393Z,99032.19
2022-11-22T09:41:26.031Z,99027.34
2022-11-22T09:44:08.490Z,99011.84
2022-11-22T09:46:50.961Z,99014.13
2022-11-22T09:49:18.411Z,99016.59
2022-11-22T09:52:03.746Z,99023.97
2022-11-22T09:54:40.712Z,99015.28
2022-11-22T09:57:31.297Z,99005.25
2022-11-22T10:00:06.807Z,99010.75
2022-11-22T10:02:59.886Z,99006.13
2022-11-22T10:05:32.373Z,99008.09
2022-11-22T10:08:23.988Z,99014.59
2022-11-22T10:10:55.736Z,99010.31
2022-11-22T10:13:31.761Z,99011.47
2022-11-22T10:16:14.701Z,99015.03
2022-11-22T10:18:55.789Z,99002.50
2022-11-22T10:21:23.309Z,98999.25
2022-11-22T10:23:50.905Z,98982.81
2022-11-22T10:26:33.210Z,98988.41
2022-11-22T10:29:20.931Z,98989.34
2022-11-22T10:32:16.278Z,99003.19
2022-11-22T10:34:43.638Z,98998.91
2022-11-22T10:37:40.227Z,98992.31
2022-11-22T10:40:40.906Z,98980.28
2022-11-22T10:43:14.177Z,98983.75
2022-11-22T10:45:47.392Z,98990.56
2022-11-22T10:48:39.046Z,98989.19
2022-11-22T10:51:29.438Z,98977.53
2022-11-22T10:54:24.650Z,98965.91
2022-11-22T10:57:12.498Z,98966.78
2022-11-22T10:59:54.938Z,98964.34
2022-11-22T11:03:13.423Z,98963.16
2022-11-22T11:06:21.062Z,98952.78
2022-11-22T11:09:36.320Z,98951.84
2022-11-22T11:11:38.691Z,98948.72
2022-11-22T11:14:19.301Z,98949.00
2022-11-22T11:16:47.597Z,98951.06
2022-11-22T11:19:22.554Z,98945.97
2022-11-22T11:22:26.103Z,98949.31
2022-11-22T11:25:31.226Z,98948.59
2022-11-22T11:28:30.916Z,98946.28
2022-11-22T11:31:10.198Z,98955.41
2022-11-22T11:33:40.256Z,98943.91
2022-11-22T11:36:22.276Z,98940.38
2022-11-22T11:38:55.842Z,98939.81
2022-11-22T11:41:37.315Z,98938.84
2022-11-22T11:44:29.311Z,98932.34
2022-11-22T11:46:58.504Z,98931.84
2022-11-22T11:49:29.382Z,98923.16
2022-11-22T11:52:08.480Z,98941.91
2022-11-22T11:54:38.646Z,98936.50
2022-11-22T11:57:11.887Z,98927.94
2022-11-22T11:59:39.450Z,98930.56
2022-11-22T12:02:29.500Z,98921.22
2022-11-22T12:05:01.786Z,98923.38
2022-11-22T12:07:34.120Z,98937.00
2022-11-22T12:10:22.766Z,98939.22
2022-11-22T12:13:02.883Z,98928.81
2022-11-22T12:15:50.337Z,98938.34
2022-11-22T12:18:43.227Z,98937.28
2022-11-22T12:21:35.446Z,98922.81
2022-11-22T12:24:41.357Z,98927.53
2022-11-22T12:27:02.213Z,98929.44
2022-11-22T12:29:33.763Z,98923.66
2022-11-22T12:32:08.346Z,98920.34
2022-11-22T12:34:57.741Z,98921.03
2022-11-22T12:37:41.635Z,98919.69
2022-11-22T12:40:24.320Z,98920.81
2022-11-22T12:43:00.847Z,98918.53
2022-11-22T12:45:33.794Z,98906.31
2022-11-22T12:48:07.423Z,98919.06
2022-11-22T12:50:40.400Z,98907.44
2022-11-22T12:53:14.634Z,98910.38
2022-11-22T12:56:06.315Z,98915.88
2022-11-22T12:58:41.649Z,98911.50
2022-11-22T13:01:12.112Z,98919.03
2022-11-22T13:03:49.320Z,98913.09
2022-11-22T13:06:22.785Z,98906.38
2022-11-22T13:09:04.189Z,98909.16
2022-11-22T13:11:59.091Z,98910.97
2022-11-22T13:14:38.461Z,98913.59
2022-11-22T13:17:12.121Z,98911.69
2022-11-22T13:20:08.497Z,98917.19
2022-11-22T13:23:02.987Z,98917.44
2022-11-22T13:25:40.858Z,98917.81
2022-11-22T13:28:14.883Z,98910.94
2022-11-22T13:31:11.794Z,98901.91
2022-11-22T13:33:43.400Z,98907.19
2022-11-22T13:36:31.942Z,98905.06
2022-11-22T13:39:12.499Z,98914.16
2022-11-22T13:41:58.324Z,98909.47
2022-11-22T13:44:28.163Z,98920.75
2022-11-22T13:47:06.006Z,98917.25
2022-11-22T13:49:48.614Z,98923.16
2022-11-22T13:52:16.159Z,98912.63
2022-11-22T13:54:46.591Z,98923.03
2022-11-22T13:57:34.701Z,98910.56
2022-11-22T14:00:14.405Z,98901.38
2022-11-22T14:02:51.220Z,98897.09
2022-11-22T14:05:26.642Z,98902.66
2022-11-22T14:07:59.638Z,98900.91
2022-11-22T14:10:36.239Z,98912.00
2022-11-22T14:13:52.306Z,98914.16
2022-11-22T14:16:31.667Z,98906.56
2022-11-22T14:19:17.756Z,98907.09
2022-11-22T14:21:54.214Z,98899.59
2022-11-22T14:25:03.778Z,98897.41
2022-11-22T14:27:48.820Z,98906.56
2022-11-22T14:30:18.661Z,98898.66
2022-11-22T14:32:50.005Z,98887.53
2022-11-22T14:35:27.935Z,98898.19
2022-11-22T14:38:19.124Z,98900.53
2022-11-22T14:40:48.096Z,98887.78
2022-11-22T14:43:25.648Z,98883.59
2022-11-22T14:45:59.579Z,98880.03
2022-11-22T14:48:43.813Z,98881.31
2022-11-22T14:51:32.073Z,98879.00
2022-11-22T14:54:02.193Z,98883.84
2022-11-22T14:56:32.628Z,98879.72
2022-11-22T14:59:26.931Z,98878.81
2022-11-22T15:02:13.099Z,98885.22
2022-11-22T15:09:11.235Z,98888.09
2022-11-22T15:09:17.047Z,98882.53
2022-11-22T15:11:40.686Z,98887.28
2022-11-22T15:14:26.812Z,98894.16
2022-11-22T15:57:39.070Z,98891.97
2022-11-22T16:00:27.759Z,98874.06
2022-11-22T16:03:06.854Z,98879.91
2022-11-22T16:06:09.145Z,98890.16
2022-11-22T16:08:29.349Z,98876.97
2022-11-22T16:11:00.601Z,98877.94
2022-11-22T16:13:32.880Z,98877.09
2022-11-22T16:16:17.612Z,98886.56
2022-11-22T16:18:46.049Z,98887.53
2022-11-22T16:21:16.308Z,98889.13
2022-11-22T16:23:48.355Z,98884.84
2022-11-22T16:26:29.573Z,98890.78
2022-11-22T16:29:19.221Z,98887.06
2022-11-22T16:31:46.788Z,98881.34
2022-11-22T16:34:15.253Z,98880.41
2022-11-22T16:36:42.840Z,98887.44
2022-11-22T16:39:10.292Z,98873.97
2022-11-22T16:41:37.852Z,98870.41
2022-11-22T16:44:13.724Z,98874.94
2022-11-22T16:46:41.807Z,98870.56
2022-11-22T16:49:18.590Z,98861.41
2022-11-22T16:51:48.166Z,98847.84
2022-11-22T16:54:18.716Z,98866.75
2022-11-22T16:56:46.592Z,98863.13
2022-11-22T16:59:14.071Z,98857.25
2022-11-22T17:01:44.923Z,98864.22
2022-11-22T17:04:23.931Z,98863.75
2022-11-22T17:06:51.933Z,98853.31
2022-11-22T17:09:20.012Z,98859.25
2022-11-22T17:11:47.805Z,98867.88
2022-11-22T17:14:16.628Z,98861.00
2022-11-22T17:16:45.960Z,98853.19
2022-11-22T17:19:30.214Z,98859.25
2022-11-22T17:22:01.181Z,98860.19
2022-11-22T17:24:29.194Z,98852.59
2022-11-22T17:26:57.097Z,98849.72
2022-11-22T17:32:13.653Z,98856.13
2022-11-22T17:34:41.225Z,98862.66
2022-11-22T17:37:12.899Z,98855.06
2022-11-22T17:39:40.954Z,98853.06
2022-11-22T17:42:08.584Z,98857.25
2022-11-22T17:44:36.072Z,98868.09
2022-11-22T17:47:03.705Z,98866.19
2022-11-22T17:49:31.456Z,98863.81
2022-11-22T17:51:59.074Z,98861.47
2022-11-22T17:54:26.488Z,98859.94
2022-11-22T17:56:54.028Z,98863.59
2022-11-22T17:59:21.682Z,98858.84
2022-11-22T18:01:49.299Z,98866.47
2022-11-22T18:04:17.677Z,98872.22
2022-11-22T18:06:45.220Z,98863.59
2022-11-22T18:09:12.945Z,98869.88
2022-11-22T18:11:40.427Z,98858.94
2022-11-22T18:14:07.964Z,98853.84
2022-11-22T18:16:35.368Z,98853.84
2022-11-22T18:19:05.885Z,98857.41
2022-11-22T18:21:33.505Z,98854.66
2022-11-22T18:24:01.560Z,98857.47
2022-11-22T18:26:44.645Z,98859.41
2022-11-22T18:32:01.960Z,98868.94
2022-11-22T18:34:30.741Z,98867.25
2022-11-22T18:37:02.446Z,98862.09
2022-11-22T18:39:32.806Z,98875.41
2022-11-22T18:42:00.590Z,98864.47
2022-11-22T18:44:28.187Z,98855.66
2022-11-22T18:46:55.950Z,98871.28
2022-11-22T18:49:23.550Z,98865.28
2022-11-22T18:51:51.289Z,98859.06
2022-11-22T18:54:19.887Z,98866.63
2022-11-22T18:56:47.396Z,98860.75
2022-11-22T18:59:14.913Z,98854.88
2022-11-22T19:01:42.416Z,98857.66
2022-11-22T19:04:13.996Z,98856.13
2022-11-22T19:06:42.314Z,98865.28
2022-11-22T19:09:10.516Z,98853.31
2022-11-22T19:11:38.404Z,98861.06
2022-11-22T19:14:06.471Z,98866.28
2022-11-22T19:16:34.151Z,98866.28
2022-11-22T19:19:01.795Z,98855.91
2022-11-22T19:21:30.019Z,98862.56
2022-11-22T19:23:57.938Z,98852.50
2022-11-22T19:26:27.245Z,98850.25
2022-11-22T19:28:56.358Z,98853.59
2022-11-22T19:31:31.510Z,98840.84
2022-11-22T19:33:59.832Z,98840.91
2022-11-22T19:36:33.418Z,98843.31
2022-11-22T19:39:05.596Z,98843.44
2022-11-22T19:41:33.562Z,98835.63
2022-11-22T19:44:01.189Z,98840.69
2022-11-22T19:46:29.978Z,98840.31
2022-11-22T19:48:59.358Z,98854.88
2022-11-22T19:51:29.214Z,98854.00
2022-11-22T19:54:04.622Z,98851.53
2022-11-22T19:56:34.524Z,98825.09
2022-11-22T19:59:04.261Z,98834.75
2022-11-22T20:01:33.651Z,98833.22
2022-11-22T20:04:04.836Z,98832.13
2022-11-22T20:06:33.971Z,98834.75
2022-11-22T20:09:09.959Z,98847.66
2022-11-22T20:11:46.064Z,98847.59
2022-11-22T20:14:13.654Z,98856.94
2022-11-22T20:16:41.819Z,98857.00
2022-11-22T20:19:11.530Z,98856.13
2022-11-22T20:21:40.053Z,98851.06
2022-11-22T20:24:08.442Z,98856.88
2022-11-22T20:26:36.637Z,98856.94
2022-11-22T20:29:06.630Z,98863.06
2022-11-22T20:31:37.347Z,98867.41
2022-11-22T20:34:05.081Z,98866.69
2022-11-22T20:36:35.092Z,98864.31
2022-11-22T20:39:08.560Z,98861.91
2022-11-22T20:41:38.884Z,98856.22
2022-11-22T20:44:07.290Z,98860.09
2022-11-22T20:46:37.876Z,98849.81
2022-11-22T20:49:05.468Z,98853.69
2022-11-22T20:51:36.062Z,98855.50
2022-11-22T20:54:03.785Z,98851.22
2022-11-22T20:56:31.310Z,98852.41
2022-11-22T20:58:59.413Z,98844.88
2022-11-22T21:01:29.320Z,98852.63
2022-11-22T21:03:57.508Z,98838.25
2022-11-22T21:06:29.519Z,98840.91
2022-11-22T21:08:57.101Z,98840.72
2022-11-22T21:11:29.029Z,98837.31
2022-11-22T21:13:57.551Z,98836.69
2022-11-22T21:16:29.708Z,98849.59
2022-11-22T21:19:02.602Z,98843.56
2022-11-22T21:21:31.268Z,98833.28
2022-11-22T21:24:00.983Z,98834.28
2022-11-22T21:26:29.627Z,98840.41
2022-11-22T21:28:57.651Z,98833.44
2022-11-22T21:31:25.933Z,98839.69
2022-11-22T21:33:53.900Z,98831.25
2022-11-22T21:36:22.118Z,98831.50
2022-11-22T21:38:49.663Z,98826.44
2022-11-22T21:44:07.393Z,98821.19
2022-11-22T21:46:34.994Z,98826.44
2022-11-22T21:49:02.537Z,98823.88
2022-11-22T21:51:32.574Z,98819.69
2022-11-22T21:54:01.649Z,98823.16
2022-11-22T21:56:29.659Z,98828.16
2022-11-22T21:58:57.664Z,98834.19
2022-11-22T22:01:26.375Z,98829.97
2022-11-22T22:03:54.268Z,98824.81
2022-11-22T22:06:22.175Z,98830.69
2022-11-22T22:08:49.689Z,98827.50
2022-11-22T22:11:17.463Z,98823.28
2022-11-22T22:13:45.021Z,98829.34
2022-11-22T22:16:18.726Z,98826.69
2022-11-22T22:18:47.628Z,98806.63
2022-11-22T22:21:16.531Z,98807.50
2022-11-22T22:23:45.370Z,98804.72
2022-11-22T22:26:15.754Z,98811.47
2022-11-22T22:28:45.323Z,98802.84
2022-11-22T22:31:22.446Z,98797.91
2022-11-22T22:33:55.130Z,98787.66
2022-11-22T22:36:24.190Z,98786.75
2022-11-22T22:38:52.281Z,98791.38
2022-11-22T22:41:19.754Z,98799.94
2022-11-22T22:43:49.042Z,98797.25
2022-11-22T22:46:22.415Z,98795.72
2022-11-22T22:48:50.585Z,98788.66
2022-11-22T22:51:27.487Z,98788.66
2022-11-22T22:53:58.261Z,98793.53
2022-11-22T22:56:27.900Z,98791.81
2022-11-22T22:58:56.596Z,98795.84
2022-11-22T23:01:28.112Z,98799.09
2022-11-22T23:03:57.777Z,98791.41
2022-11-22T23:06:29.741Z,98783.44
2022-11-22T23:08:57.630Z,98791.19
2022-11-22T23:11:46.575Z,98793.56
2022-11-22T23:14:17.561Z,98781.09
2022-11-22T23:16:45.722Z,98771.75
2022-11-22T23:19:13.670Z,98782.03
2022-11-22T23:21:41.184Z,98787.22
2022-11-22T23:24:09.462Z,98788.09
2022-11-22T23:26:37.352Z,98773.47
2022-11-22T23:29:05.576Z,98786.41
2022-11-22T23:31:33.184Z,98797.44
2022-11-22T23:34:04.804Z,98800.78
2022-11-22T23:36:40.289Z,98790.38
2022-11-22T23:39:09.237Z,98792.06
2022-11-22T23:41:36.872Z,98791.25
2022-11-22T23:44:04.526Z,98786.09
2022-11-22T23:46:32.218Z,98787.22
2022-11-22T23:49:01.068Z,98774.59
2022-11-22T23:51:30.710Z,98781.53
2022-11-22T23:54:04.466Z,98772.38
2022-11-22T23:56:33.668Z,98776.78
2022-11-22T23:59:02.315Z,98768.53
